sensor_id;sensor_type;location;lat;lon;timestamp;temperature;humidity
78779;DHT22;68121;52.404;5.318;2023-05-06T00:01:15;12.50;72.70
78779;DHT22;68121;52.404;5.318;2023-05-06T00:03:41;12.30;72.80
78779;DHT22;68121;52.404;5.318;2023-05-06T00:06:07;12.30;72.90
78779;DHT22;68121;52.404;5.318;2023-05-06T00:08:34;12.30;73.00
78779;DHT22;68121;52.404;5.318;2023-05-06T00:11:00;12.30;73.10
78779;DHT22;68121;52.404;5.318;2023-05-06T00:13:26;12.30;73.20
78779;DHT22;68121;52.404;5.318;2023-05-06T00:15:52;12.30;73.20
78779;DHT22;68121;52.404;5.318;2023-05-06T00:18:18;12.30;73.20
78779;DHT22;68121;52.404;5.318;2023-05-06T00:20:47;12.30;73.20
78779;DHT22;68121;52.404;5.318;2023-05-06T00:23:13;12.30;73.20
78779;DHT22;68121;52.404;5.318;2023-05-06T00:25:39;12.30;73.20
78779;DHT22;68121;52.404;5.318;2023-05-06T00:28:05;12.30;73.20
78779;DHT22;68121;52.404;5.318;2023-05-06T00:30:31;12.30;73.30
78779;DHT22;68121;52.404;5.318;2023-05-06T00:32:57;12.30;73.20
78779;DHT22;68121;52.404;5.318;2023-05-06T00:35:23;12.30;73.20
78779;DHT22;68121;52.404;5.318;2023-05-06T00:37:56;12.30;73.20
78779;DHT22;68121;52.404;5.318;2023-05-06T00:40:23;12.30;73.30
78779;DHT22;68121;52.404;5.318;2023-05-06T00:42:49;12.30;73.30
78779;DHT22;68121;52.404;5.318;2023-05-06T00:45:15;12.30;73.30
78779;DHT22;68121;52.404;5.318;2023-05-06T00:47:41;12.30;73.40
78779;DHT22;68121;52.404;5.318;2023-05-06T00:50:08;12.30;73.40
78779;DHT22;68121;52.404;5.318;2023-05-06T00:52:34;12.30;73.40
78779;DHT22;68121;52.404;5.318;2023-05-06T00:55:00;12.30;73.40
78779;DHT22;68121;52.404;5.318;2023-05-06T00:57:26;12.30;73.30
78779;DHT22;68121;52.404;5.318;2023-05-06T00:59:53;12.30;73.30
78779;DHT22;68121;52.404;5.318;2023-05-06T01:02:19;12.30;73.30
78779;DHT22;68121;52.404;5.318;2023-05-06T01:04:45;12.30;73.30
78779;DHT22;68121;52.404;5.318;2023-05-06T01:15:58;12.30;73.30
78779;DHT22;68121;52.404;5.318;2023-05-06T01:18:26;12.30;73.30
78779;DHT22;68121;52.404;5.318;2023-05-06T01:20:54;12.30;73.30
78779;DHT22;68121;52.404;5.318;2023-05-06T01:23:21;12.20;73.30
78779;DHT22;68121;52.404;5.318;2023-05-06T01:25:47;12.20;73.40
78779;DHT22;68121;52.404;5.318;2023-05-06T01:28:13;12.20;73.50
78779;DHT22;68121;52.404;5.318;2023-05-06T01:30:51;12.20;73.50
78779;DHT22;68121;52.404;5.318;2023-05-06T01:33:45;12.20;73.50
78779;DHT22;68121;52.404;5.318;2023-05-06T01:36:34;12.10;73.50
78779;DHT22;68121;52.404;5.318;2023-05-06T01:41:39;12.10;73.50
78779;DHT22;68121;52.404;5.318;2023-05-06T01:44:07;12.00;73.50
78779;DHT22;68121;52.404;5.318;2023-05-06T01:46:34;12.00;73.50
78779;DHT22;68121;52.404;5.318;2023-05-06T01:49:04;12.00;73.50
78779;DHT22;68121;52.404;5.318;2023-05-06T01:51:32;12.00;73.50
78779;DHT22;68121;52.404;5.318;2023-05-06T01:53:59;12.00;73.50
78779;DHT22;68121;52.404;5.318;2023-05-06T01:56:25;12.00;73.50
78779;DHT22;68121;52.404;5.318;2023-05-06T01:58:52;12.00;73.50
78779;DHT22;68121;52.404;5.318;2023-05-06T02:01:18;12.00;73.60
78779;DHT22;68121;52.404;5.318;2023-05-06T02:03:44;12.00;73.60
78779;DHT22;68121;52.404;5.318;2023-05-06T02:06:10;12.00;73.70
78779;DHT22;68121;52.404;5.318;2023-05-06T02:08:38;12.00;73.60
78779;DHT22;68121;52.404;5.318;2023-05-06T02:11:05;11.90;73.70
78779;DHT22;68121;52.404;5.318;2023-05-06T02:13:31;11.90;73.70
78779;DHT22;68121;52.404;5.318;2023-05-06T02:15:57;11.90;73.80
78779;DHT22;68121;52.404;5.318;2023-05-06T02:18:23;11.90;73.80
78779;DHT22;68121;52.404;5.318;2023-05-06T02:20:50;11.90;73.80
78779;DHT22;68121;52.404;5.318;2023-05-06T02:23:16;11.80;73.80
78779;DHT22;68121;52.404;5.318;2023-05-06T02:25:42;11.70;73.90
78779;DHT22;68121;52.404;5.318;2023-05-06T02:28:08;11.70;73.90
78779;DHT22;68121;52.404;5.318;2023-05-06T02:30:35;11.70;74.00
78779;DHT22;68121;52.404;5.318;2023-05-06T02:33:01;11.70;74.10
78779;DHT22;68121;52.404;5.318;2023-05-06T02:35:27;11.70;74.10
78779;DHT22;68121;52.404;5.318;2023-05-06T02:37:53;11.70;74.10
78779;DHT22;68121;52.404;5.318;2023-05-06T02:40:20;11.70;74.10
78779;DHT22;68121;52.404;5.318;2023-05-06T02:42:46;11.60;74.10
78779;DHT22;68121;52.404;5.318;2023-05-06T02:45:12;11.50;74.20
78779;DHT22;68121;52.404;5.318;2023-05-06T02:47:38;11.50;74.30
78779;DHT22;68121;52.404;5.318;2023-05-06T02:50:04;11.50;74.30
78779;DHT22;68121;52.404;5.318;2023-05-06T02:52:30;11.50;74.30
78779;DHT22;68121;52.404;5.318;2023-05-06T02:54:58;11.50;74.30
78779;DHT22;68121;52.404;5.318;2023-05-06T02:57:24;11.50;74.30
78779;DHT22;68121;52.404;5.318;2023-05-06T02:59:50;11.50;74.30
78779;DHT22;68121;52.404;5.318;2023-05-06T03:02:16;11.50;74.30
78779;DHT22;68121;52.404;5.318;2023-05-06T03:04:42;11.50;74.30
78779;DHT22;68121;52.404;5.318;2023-05-06T03:07:08;11.40;74.50
78779;DHT22;68121;52.404;5.318;2023-05-06T03:09:34;11.40;74.50
78779;DHT22;68121;52.404;5.318;2023-05-06T03:12:00;11.40;74.60
78779;DHT22;68121;52.404;5.318;2023-05-06T03:14:27;11.40;74.50
78779;DHT22;68121;52.404;5.318;2023-05-06T03:16:53;11.40;74.50
78779;DHT22;68121;52.404;5.318;2023-05-06T03:19:19;11.40;74.50
78779;DHT22;68121;52.404;5.318;2023-05-06T03:21:45;11.40;74.50
78779;DHT22;68121;52.404;5.318;2023-05-06T03:24:11;11.30;74.50
78779;DHT22;68121;52.404;5.318;2023-05-06T03:26:37;11.30;74.60
78779;DHT22;68121;52.404;5.318;2023-05-06T03:29:03;11.30;74.70
78779;DHT22;68121;52.404;5.318;2023-05-06T03:31:29;11.30;74.70
78779;DHT22;68121;52.404;5.318;2023-05-06T03:33:55;11.20;74.70
78779;DHT22;68121;52.404;5.318;2023-05-06T03:36:21;11.30;74.80
78779;DHT22;68121;52.404;5.318;2023-05-06T03:38:50;11.30;74.80
78779;DHT22;68121;52.404;5.318;2023-05-06T03:41:16;11.30;74.80
78779;DHT22;68121;52.404;5.318;2023-05-06T03:43:43;11.30;74.80
78779;DHT22;68121;52.404;5.318;2023-05-06T03:46:09;11.30;74.80
78779;DHT22;68121;52.404;5.318;2023-05-06T03:48:36;11.20;74.90
78779;DHT22;68121;52.404;5.318;2023-05-06T03:51:02;11.30;75.00
78779;DHT22;68121;52.404;5.318;2023-05-06T03:53:28;11.30;75.00
78779;DHT22;68121;52.404;5.318;2023-05-06T03:55:54;11.30;75.00
78779;DHT22;68121;52.404;5.318;2023-05-06T03:58:21;11.40;75.00
78779;DHT22;68121;52.404;5.318;2023-05-06T04:00:47;11.40;75.00
78779;DHT22;68121;52.404;5.318;2023-05-06T04:03:13;11.40;75.00
78779;DHT22;68121;52.404;5.318;2023-05-06T04:05:39;11.50;75.00
78779;DHT22;68121;52.404;5.318;2023-05-06T04:08:05;11.50;75.00
78779;DHT22;68121;52.404;5.318;2023-05-06T04:10:31;11.50;75.00
78779;DHT22;68121;52.404;5.318;2023-05-06T04:12:57;11.50;75.00
78779;DHT22;68121;52.404;5.318;2023-05-06T04:15:23;11.50;75.00
78779;DHT22;68121;52.404;5.318;2023-05-06T04:17:49;11.50;75.00
78779;DHT22;68121;52.404;5.318;2023-05-06T04:20:15;11.50;75.00
78779;DHT22;68121;52.404;5.318;2023-05-06T04:22:41;11.50;75.10
78779;DHT22;68121;52.404;5.318;2023-05-06T04:25:07;11.50;75.00
78779;DHT22;68121;52.404;5.318;2023-05-06T04:27:34;11.50;75.00
78779;DHT22;68121;52.404;5.318;2023-05-06T04:30:00;11.50;75.00
78779;DHT22;68121;52.404;5.318;2023-05-06T04:32:26;11.50;75.10
78779;DHT22;68121;52.404;5.318;2023-05-06T04:34:52;11.50;75.10
78779;DHT22;68121;52.404;5.318;2023-05-06T04:37:19;11.50;75.10
78779;DHT22;68121;52.404;5.318;2023-05-06T04:39:47;11.50;75.10
78779;DHT22;68121;52.404;5.318;2023-05-06T04:42:14;11.50;75.20
78779;DHT22;68121;52.404;5.318;2023-05-06T04:44:41;11.50;75.20
78779;DHT22;68121;52.404;5.318;2023-05-06T04:47:08;11.50;75.20
78779;DHT22;68121;52.404;5.318;2023-05-06T04:49:34;11.50;75.20
78779;DHT22;68121;52.404;5.318;2023-05-06T04:52:00;11.50;75.20
78779;DHT22;68121;52.404;5.318;2023-05-06T04:54:26;11.50;75.20
78779;DHT22;68121;52.404;5.318;2023-05-06T04:56:53;11.60;75.30
78779;DHT22;68121;52.404;5.318;2023-05-06T04:59:19;11.60;75.20
78779;DHT22;68121;52.404;5.318;2023-05-06T05:01:45;11.60;75.20
78779;DHT22;68121;52.404;5.318;2023-05-06T05:04:11;11.60;75.20
78779;DHT22;68121;52.404;5.318;2023-05-06T05:06:37;11.60;75.20
78779;DHT22;68121;52.404;5.318;2023-05-06T05:09:03;11.60;75.20
78779;DHT22;68121;52.404;5.318;2023-05-06T05:11:29;11.70;75.20
78779;DHT22;68121;52.404;5.318;2023-05-06T05:13:56;11.80;75.10
78779;DHT22;68121;52.404;5.318;2023-05-06T05:16:22;11.70;75.00
78779;DHT22;68121;52.404;5.318;2023-05-06T05:18:48;11.70;75.00
78779;DHT22;68121;52.404;5.318;2023-05-06T05:21:15;11.70;75.00
78779;DHT22;68121;52.404;5.318;2023-05-06T05:23:41;11.70;75.10
78779;DHT22;68121;52.404;5.318;2023-05-06T05:26:07;11.70;75.10
78779;DHT22;68121;52.404;5.318;2023-05-06T05:28:33;11.80;75.20
78779;DHT22;68121;52.404;5.318;2023-05-06T05:31:03;11.80;75.20
78779;DHT22;68121;52.404;5.318;2023-05-06T05:33:29;11.80;75.20
78779;DHT22;68121;52.404;5.318;2023-05-06T05:35:56;11.90;75.20
78779;DHT22;68121;52.404;5.318;2023-05-06T05:38:23;11.90;75.30
78779;DHT22;68121;52.404;5.318;2023-05-06T05:40:50;11.90;75.30
78779;DHT22;68121;52.404;5.318;2023-05-06T05:43:16;12.00;75.30
78779;DHT22;68121;52.404;5.318;2023-05-06T05:45:42;12.00;75.20
78779;DHT22;68121;52.404;5.318;2023-05-06T05:48:08;12.10;75.20
78779;DHT22;68121;52.404;5.318;2023-05-06T05:50:34;12.20;75.10
78779;DHT22;68121;52.404;5.318;2023-05-06T05:53:00;12.30;75.20
78779;DHT22;68121;52.404;5.318;2023-05-06T05:55:28;12.40;75.10
78779;DHT22;68121;52.404;5.318;2023-05-06T05:57:54;12.50;75.10
78779;DHT22;68121;52.404;5.318;2023-05-06T06:00:20;12.50;75.10
78779;DHT22;68121;52.404;5.318;2023-05-06T06:02:46;12.70;75.00
78779;DHT22;68121;52.404;5.318;2023-05-06T06:05:12;12.80;75.00
78779;DHT22;68121;52.404;5.318;2023-05-06T06:07:38;12.90;74.90
78779;DHT22;68121;52.404;5.318;2023-05-06T06:10:05;13.00;74.80
78779;DHT22;68121;52.404;5.318;2023-05-06T06:12:31;13.00;74.80
78779;DHT22;68121;52.404;5.318;2023-05-06T06:14:57;13.00;74.80
78779;DHT22;68121;52.404;5.318;2023-05-06T06:17:24;13.10;74.90
78779;DHT22;68121;52.404;5.318;2023-05-06T06:19:50;13.10;74.90
78779;DHT22;68121;52.404;5.318;2023-05-06T06:22:16;13.10;74.90
78779;DHT22;68121;52.404;5.318;2023-05-06T06:24:42;13.10;74.90
78779;DHT22;68121;52.404;5.318;2023-05-06T06:27:08;13.30;75.00
78779;DHT22;68121;52.404;5.318;2023-05-06T06:29:34;13.30;74.90
78779;DHT22;68121;52.404;5.318;2023-05-06T06:32:02;13.30;74.80
78779;DHT22;68121;52.404;5.318;2023-05-06T06:34:28;13.30;74.90
78779;DHT22;68121;52.404;5.318;2023-05-06T06:36:54;13.30;74.90
78779;DHT22;68121;52.404;5.318;2023-05-06T06:39:20;13.30;75.00
78779;DHT22;68121;52.404;5.318;2023-05-06T06:41:46;13.40;74.90
78779;DHT22;68121;52.404;5.318;2023-05-06T06:44:12;13.30;74.90
78779;DHT22;68121;52.404;5.318;2023-05-06T06:46:38;13.40;75.00
78779;DHT22;68121;52.404;5.318;2023-05-06T06:49:04;13.50;75.00
78779;DHT22;68121;52.404;5.318;2023-05-06T06:51:30;13.50;75.00
78779;DHT22;68121;52.404;5.318;2023-05-06T06:53:57;13.50;75.00
78779;DHT22;68121;52.404;5.318;2023-05-06T06:56:23;13.60;75.10
78779;DHT22;68121;52.404;5.318;2023-05-06T06:58:49;13.60;75.00
78779;DHT22;68121;52.404;5.318;2023-05-06T07:01:15;13.70;75.00
78779;DHT22;68121;52.404;5.318;2023-05-06T07:03:41;13.90;74.80
78779;DHT22;68121;52.404;5.318;2023-05-06T07:06:07;14.00;74.80
78779;DHT22;68121;52.404;5.318;2023-05-06T07:08:33;14.10;74.70
78779;DHT22;68121;52.404;5.318;2023-05-06T07:10:59;14.30;74.40
78779;DHT22;68121;52.404;5.318;2023-05-06T07:13:25;14.40;74.20
78779;DHT22;68121;52.404;5.318;2023-05-06T07:15:51;14.50;74.00
78779;DHT22;68121;52.404;5.318;2023-05-06T07:18:17;14.60;73.90
78779;DHT22;68121;52.404;5.318;2023-05-06T07:20:43;14.70;73.70
78779;DHT22;68121;52.404;5.318;2023-05-06T07:23:09;14.90;73.50
78779;DHT22;68121;52.404;5.318;2023-05-06T07:25:35;15.00;73.30
78779;DHT22;68121;52.404;5.318;2023-05-06T07:28:02;15.20;73.10
78779;DHT22;68121;52.404;5.318;2023-05-06T07:30:28;15.40;72.90
78779;DHT22;68121;52.404;5.318;2023-05-06T07:32:54;15.40;72.80
78779;DHT22;68121;52.404;5.318;2023-05-06T07:35:20;15.60;72.70
78779;DHT22;68121;52.404;5.318;2023-05-06T07:37:46;15.70;72.60
78779;DHT22;68121;52.404;5.318;2023-05-06T07:40:12;15.80;72.30
78779;DHT22;68121;52.404;5.318;2023-05-06T07:42:39;16.00;72.10
78779;DHT22;68121;52.404;5.318;2023-05-06T07:45:06;16.10;72.00
78779;DHT22;68121;52.404;5.318;2023-05-06T07:47:34;16.30;71.60
78779;DHT22;68121;52.404;5.318;2023-05-06T07:50:01;16.40;71.60
78779;DHT22;68121;52.404;5.318;2023-05-06T07:52:27;16.50;71.50
78779;DHT22;68121;52.404;5.318;2023-05-06T07:54:53;16.60;71.40
78779;DHT22;68121;52.404;5.318;2023-05-06T07:57:19;16.70;71.20
78779;DHT22;68121;52.404;5.318;2023-05-06T07:59:50;16.90;71.10
78779;DHT22;68121;52.404;5.318;2023-05-06T08:02:16;17.00;70.90
78779;DHT22;68121;52.404;5.318;2023-05-06T08:04:44;17.00;70.60
78779;DHT22;68121;52.404;5.318;2023-05-06T08:07:10;17.20;70.50
78779;DHT22;68121;52.404;5.318;2023-05-06T08:09:36;17.20;70.30
78779;DHT22;68121;52.404;5.318;2023-05-06T08:12:02;17.30;70.10
78779;DHT22;68121;52.404;5.318;2023-05-06T08:14:28;17.50;70.00
78779;DHT22;68121;52.404;5.318;2023-05-06T08:16:55;17.60;69.90
78779;DHT22;68121;52.404;5.318;2023-05-06T08:19:21;17.80;69.50
78779;DHT22;68121;52.404;5.318;2023-05-06T08:21:47;17.80;69.20
78779;DHT22;68121;52.404;5.318;2023-05-06T08:24:14;17.80;68.90
78779;DHT22;68121;52.404;5.318;2023-05-06T08:26:40;17.80;69.00
78779;DHT22;68121;52.404;5.318;2023-05-06T08:29:06;17.80;69.00
78779;DHT22;68121;52.404;5.318;2023-05-06T08:31:33;17.80;69.00
78779;DHT22;68121;52.404;5.318;2023-05-06T08:33:59;18.00;68.80
78779;DHT22;68121;52.404;5.318;2023-05-06T08:36:25;18.00;68.50
78779;DHT22;68121;52.404;5.318;2023-05-06T08:38:52;18.20;68.30
78779;DHT22;68121;52.404;5.318;2023-05-06T08:41:19;18.30;68.10
78779;DHT22;68121;52.404;5.318;2023-05-06T08:43:49;18.50;67.80
78779;DHT22;68121;52.404;5.318;2023-05-06T08:46:16;18.70;67.40
78779;DHT22;68121;52.404;5.318;2023-05-06T08:48:42;18.80;67.00
78779;DHT22;68121;52.404;5.318;2023-05-06T08:51:08;18.90;66.70
78779;DHT22;68121;52.404;5.318;2023-05-06T08:53:34;19.10;66.50
78779;DHT22;68121;52.404;5.318;2023-05-06T08:56:03;19.20;66.30
78779;DHT22;68121;52.404;5.318;2023-05-06T08:58:35;19.30;66.00
78779;DHT22;68121;52.404;5.318;2023-05-06T09:01:03;19.40;65.70
78779;DHT22;68121;52.404;5.318;2023-05-06T09:03:30;19.40;65.50
78779;DHT22;68121;52.404;5.318;2023-05-06T09:05:57;19.40;65.40
78779;DHT22;68121;52.404;5.318;2023-05-06T09:08:23;19.40;65.20
78779;DHT22;68121;52.404;5.318;2023-05-06T09:10:49;19.50;65.10
78779;DHT22;68121;52.404;5.318;2023-05-06T09:13:17;19.60;64.80
78779;DHT22;68121;52.404;5.318;2023-05-06T09:15:47;19.70;64.50
78779;DHT22;68121;52.404;5.318;2023-05-06T09:18:15;19.70;64.30
78779;DHT22;68121;52.404;5.318;2023-05-06T09:20:45;19.80;64.30
78779;DHT22;68121;52.404;5.318;2023-05-06T09:23:14;19.90;64.30
78779;DHT22;68121;52.404;5.318;2023-05-06T09:25:41;19.90;64.30
78779;DHT22;68121;52.404;5.318;2023-05-06T09:28:09;19.90;64.30
78779;DHT22;68121;52.404;5.318;2023-05-06T09:30:43;19.80;64.20
78779;DHT22;68121;52.404;5.318;2023-05-06T09:33:10;19.70;64.40
78779;DHT22;68121;52.404;5.318;2023-05-06T09:35:38;19.70;64.60
78779;DHT22;68121;52.404;5.318;2023-05-06T09:38:05;19.70;64.60
78779;DHT22;68121;52.404;5.318;2023-05-06T09:40:33;19.90;64.50
78779;DHT22;68121;52.404;5.318;2023-05-06T09:42:59;20.00;64.40
78779;DHT22;68121;52.404;5.318;2023-05-06T09:45:27;20.10;64.10
78779;DHT22;68121;52.404;5.318;2023-05-06T09:47:53;20.20;63.90
78779;DHT22;68121;52.404;5.318;2023-05-06T09:50:20;20.30;63.70
78779;DHT22;68121;52.404;5.318;2023-05-06T09:52:48;20.40;63.40
78779;DHT22;68121;52.404;5.318;2023-05-06T09:55:14;20.50;63.30
78779;DHT22;68121;52.404;5.318;2023-05-06T09:57:43;20.60;62.90
78779;DHT22;68121;52.404;5.318;2023-05-06T10:00:10;20.60;62.60
78779;DHT22;68121;52.404;5.318;2023-05-06T10:02:43;20.60;62.90
78779;DHT22;68121;52.404;5.318;2023-05-06T10:05:10;20.50;62.80
78779;DHT22;68121;52.404;5.318;2023-05-06T10:07:38;20.40;62.80
78779;DHT22;68121;52.404;5.318;2023-05-06T10:10:09;20.40;62.70
78779;DHT22;68121;52.404;5.318;2023-05-06T10:12:36;20.50;62.60
78779;DHT22;68121;52.404;5.318;2023-05-06T10:15:03;20.60;62.60
78779;DHT22;68121;52.404;5.318;2023-05-06T10:17:30;20.60;62.40
78779;DHT22;68121;52.404;5.318;2023-05-06T10:19:58;20.70;62.40
78779;DHT22;68121;52.404;5.318;2023-05-06T10:27:34;20.80;61.40
78779;DHT22;68121;52.404;5.318;2023-05-06T10:30:05;20.80;61.00
78779;DHT22;68121;52.404;5.318;2023-05-06T10:32:32;21.00;60.60
78779;DHT22;68121;52.404;5.318;2023-05-06T10:35:06;21.10;60.20
78779;DHT22;68121;52.404;5.318;2023-05-06T10:37:33;21.30;59.50
78779;DHT22;68121;52.404;5.318;2023-05-06T10:40:00;21.10;59.40
78779;DHT22;68121;52.404;5.318;2023-05-06T10:42:33;21.10;59.50
78779;DHT22;68121;52.404;5.318;2023-05-06T10:45:03;21.10;59.80
78779;DHT22;68121;52.404;5.318;2023-05-06T10:50:23;21.50;58.90
78779;DHT22;68121;52.404;5.318;2023-05-06T10:52:51;21.50;58.70
78779;DHT22;68121;52.404;5.318;2023-05-06T10:55:43;21.70;58.50
78779;DHT22;68121;52.404;5.318;2023-05-06T11:00:36;21.80;58.10
78779;DHT22;68121;52.404;5.318;2023-05-06T11:03:09;21.50;58.10
78779;DHT22;68121;52.404;5.318;2023-05-06T11:06:04;21.30;58.50
78779;DHT22;68121;52.404;5.318;2023-05-06T11:08:31;21.10;58.70
78779;DHT22;68121;52.404;5.318;2023-05-06T11:10:57;21.00;59.10
78779;DHT22;68121;52.404;5.318;2023-05-06T11:15:51;21.00;59.10
78779;DHT22;68121;52.404;5.318;2023-05-06T11:26:07;20.80;58.00
78779;DHT22;68121;52.404;5.318;2023-05-06T11:28:33;20.70;58.20
78779;DHT22;68121;52.404;5.318;2023-05-06T11:31:00;20.70;58.00
78779;DHT22;68121;52.404;5.318;2023-05-06T11:33:36;20.80;57.90
78779;DHT22;68121;52.404;5.318;2023-05-06T11:36:03;20.70;57.60
78779;DHT22;68121;52.404;5.318;2023-05-06T11:38:46;20.60;58.00
78779;DHT22;68121;52.404;5.318;2023-05-06T11:41:14;20.50;58.10
78779;DHT22;68121;52.404;5.318;2023-05-06T11:43:47;20.50;58.30
78779;DHT22;68121;52.404;5.318;2023-05-06T11:46:20;20.40;58.30
78779;DHT22;68121;52.404;5.318;2023-05-06T11:48:47;20.30;58.40
78779;DHT22;68121;52.404;5.318;2023-05-06T11:51:13;20.30;58.60
78779;DHT22;68121;52.404;5.318;2023-05-06T11:53:39;20.30;58.60
78779;DHT22;68121;52.404;5.318;2023-05-06T11:56:06;20.10;58.70
78779;DHT22;68121;52.404;5.318;2023-05-06T11:58:32;20.10;59.00
78779;DHT22;68121;52.404;5.318;2023-05-06T12:01:00;20.10;59.20
78779;DHT22;68121;52.404;5.318;2023-05-06T12:03:28;20.10;59.10
78779;DHT22;68121;52.404;5.318;2023-05-06T12:05:56;20.10;59.50
78779;DHT22;68121;52.404;5.318;2023-05-06T12:08:32;20.30;59.60
78779;DHT22;68121;52.404;5.318;2023-05-06T12:11:01;20.30;59.90
78779;DHT22;68121;52.404;5.318;2023-05-06T12:13:28;20.30;60.00
78779;DHT22;68121;52.404;5.318;2023-05-06T12:15:55;20.40;59.80
78779;DHT22;68121;52.404;5.318;2023-05-06T12:18:22;20.30;59.50
78779;DHT22;68121;52.404;5.318;2023-05-06T12:20:48;20.30;59.20
78779;DHT22;68121;52.404;5.318;2023-05-06T12:23:15;20.20;59.10
78779;DHT22;68121;52.404;5.318;2023-05-06T12:25:42;20.10;59.00
78779;DHT22;68121;52.404;5.318;2023-05-06T12:28:17;20.10;59.10
78779;DHT22;68121;52.404;5.318;2023-05-06T12:30:44;20.10;59.00
78779;DHT22;68121;52.404;5.318;2023-05-06T12:33:11;20.00;58.90
78779;DHT22;68121;52.404;5.318;2023-05-06T12:35:37;20.00;58.90
78779;DHT22;68121;52.404;5.318;2023-05-06T12:38:14;20.00;59.00
78779;DHT22;68121;52.404;5.318;2023-05-06T12:40:51;20.00;59.50
78779;DHT22;68121;52.404;5.318;2023-05-06T12:43:17;19.90;59.70
78779;DHT22;68121;52.404;5.318;2023-05-06T12:46:01;19.70;60.10
78779;DHT22;68121;52.404;5.318;2023-05-06T12:48:28;19.50;60.80
78779;DHT22;68121;52.404;5.318;2023-05-06T12:50:54;19.40;61.10
78779;DHT22;68121;52.404;5.318;2023-05-06T12:53:34;19.30;61.70
78779;DHT22;68121;52.404;5.318;2023-05-06T12:56:00;19.10;62.40
78779;DHT22;68121;52.404;5.318;2023-05-06T12:58:26;19.00;62.70
78779;DHT22;68121;52.404;5.318;2023-05-06T13:00:52;18.90;63.30
78779;DHT22;68121;52.404;5.318;2023-05-06T13:03:18;18.80;63.70
78779;DHT22;68121;52.404;5.318;2023-05-06T13:05:44;18.80;63.90
78779;DHT22;68121;52.404;5.318;2023-05-06T13:08:14;18.90;64.40
78779;DHT22;68121;52.404;5.318;2023-05-06T13:10:40;18.90;64.70
78779;DHT22;68121;52.404;5.318;2023-05-06T13:13:06;19.00;64.90
78779;DHT22;68121;52.404;5.318;2023-05-06T13:15:32;19.30;65.30
78779;DHT22;68121;52.404;5.318;2023-05-06T13:17:59;19.50;65.30
78779;DHT22;68121;52.404;5.318;2023-05-06T13:20:26;19.70;65.30
78779;DHT22;68121;52.404;5.318;2023-05-06T13:22:52;20.00;65.00
78779;DHT22;68121;52.404;5.318;2023-05-06T13:25:21;20.00;64.30
78779;DHT22;68121;52.404;5.318;2023-05-06T13:27:48;20.00;64.10
78779;DHT22;68121;52.404;5.318;2023-05-06T13:30:14;20.20;63.70
78779;DHT22;68121;52.404;5.318;2023-05-06T13:32:40;20.40;63.10
78779;DHT22;68121;52.404;5.318;2023-05-06T13:35:06;20.50;62.60
78779;DHT22;68121;52.404;5.318;2023-05-06T13:37:32;20.70;62.10
78779;DHT22;68121;52.404;5.318;2023-05-06T13:39:58;20.90;61.80
78779;DHT22;68121;52.404;5.318;2023-05-06T13:42:24;21.00;61.40
78779;DHT22;68121;52.404;5.318;2023-05-06T13:44:50;21.10;61.30
78779;DHT22;68121;52.404;5.318;2023-05-06T13:47:17;21.20;61.40
78779;DHT22;68121;52.404;5.318;2023-05-06T13:49:43;21.40;61.10
78779;DHT22;68121;52.404;5.318;2023-05-06T13:52:09;21.40;60.20
78779;DHT22;68121;52.404;5.318;2023-05-06T13:54:35;21.50;59.50
78779;DHT22;68121;52.404;5.318;2023-05-06T13:57:01;21.70;59.40
78779;DHT22;68121;52.404;5.318;2023-05-06T13:59:27;21.70;58.90
78779;DHT22;68121;52.404;5.318;2023-05-06T14:01:53;21.70;58.70
78779;DHT22;68121;52.404;5.318;2023-05-06T14:04:20;21.60;58.50
78779;DHT22;68121;52.404;5.318;2023-05-06T14:06:46;21.50;58.20
78779;DHT22;68121;52.404;5.318;2023-05-06T14:09:12;21.50;58.00
78779;DHT22;68121;52.404;5.318;2023-05-06T14:11:38;21.60;57.90
78779;DHT22;68121;52.404;5.318;2023-05-06T14:14:04;21.50;57.60
78779;DHT22;68121;52.404;5.318;2023-05-06T14:16:31;21.60;57.30
78779;DHT22;68121;52.404;5.318;2023-05-06T14:18:57;21.50;57.20
78779;DHT22;68121;52.404;5.318;2023-05-06T14:21:24;21.50;57.00
78779;DHT22;68121;52.404;5.318;2023-05-06T14:23:50;21.40;57.00
78779;DHT22;68121;52.404;5.318;2023-05-06T14:26:16;21.40;57.00
78779;DHT22;68121;52.404;5.318;2023-05-06T14:28:42;21.30;56.80
78779;DHT22;68121;52.404;5.318;2023-05-06T14:31:08;21.20;56.70
78779;DHT22;68121;52.404;5.318;2023-05-06T14:33:36;21.10;56.70
78779;DHT22;68121;52.404;5.318;2023-05-06T14:36:03;21.10;56.90
78779;DHT22;68121;52.404;5.318;2023-05-06T14:38:29;21.10;57.30
78779;DHT22;68121;52.404;5.318;2023-05-06T14:40:55;21.20;57.70
78779;DHT22;68121;52.404;5.318;2023-05-06T14:43:21;21.20;58.00
78779;DHT22;68121;52.404;5.318;2023-05-06T14:45:47;21.30;57.80
78779;DHT22;68121;52.404;5.318;2023-05-06T14:48:13;21.30;57.30
78779;DHT22;68121;52.404;5.318;2023-05-06T14:50:40;21.30;57.20
78779;DHT22;68121;52.404;5.318;2023-05-06T14:53:06;21.40;57.40
78779;DHT22;68121;52.404;5.318;2023-05-06T14:55:32;21.40;57.30
78779;DHT22;68121;52.404;5.318;2023-05-06T14:57:58;21.50;57.40
78779;DHT22;68121;52.404;5.318;2023-05-06T15:00:24;21.50;57.40
78779;DHT22;68121;52.404;5.318;2023-05-06T15:02:50;21.50;57.50
78779;DHT22;68121;52.404;5.318;2023-05-06T15:05:16;21.50;57.40
78779;DHT22;68121;52.404;5.318;2023-05-06T15:07:43;21.50;57.30
78779;DHT22;68121;52.404;5.318;2023-05-06T15:10:09;21.50;57.30
78779;DHT22;68121;52.404;5.318;2023-05-06T15:12:35;21.30;57.50
78779;DHT22;68121;52.404;5.318;2023-05-06T15:15:04;21.30;57.30
78779;DHT22;68121;52.404;5.318;2023-05-06T15:17:30;21.10;57.50
78779;DHT22;68121;52.404;5.318;2023-05-06T15:19:56;21.10;57.60
78779;DHT22;68121;52.404;5.318;2023-05-06T15:22:22;21.10;57.90
78779;DHT22;68121;52.404;5.318;2023-05-06T15:24:48;21.10;58.20
78779;DHT22;68121;52.404;5.318;2023-05-06T15:27:14;21.10;58.20
78779;DHT22;68121;52.404;5.318;2023-05-06T15:29:41;21.10;58.40
78779;DHT22;68121;52.404;5.318;2023-05-06T15:32:07;21.10;58.60
78779;DHT22;68121;52.404;5.318;2023-05-06T15:34:33;21.00;58.60
78779;DHT22;68121;52.404;5.318;2023-05-06T15:36:59;21.00;58.70
78779;DHT22;68121;52.404;5.318;2023-05-06T15:39:28;20.90;58.70
78779;DHT22;68121;52.404;5.318;2023-05-06T15:41:57;20.80;59.00
78779;DHT22;68121;52.404;5.318;2023-05-06T15:44:23;20.80;59.30
78779;DHT22;68121;52.404;5.318;2023-05-06T15:46:49;20.70;59.60
78779;DHT22;68121;52.404;5.318;2023-05-06T15:49:15;20.70;59.70
78779;DHT22;68121;52.404;5.318;2023-05-06T15:51:41;20.60;59.70
78779;DHT22;68121;52.404;5.318;2023-05-06T15:54:07;20.50;59.90
78779;DHT22;68121;52.404;5.318;2023-05-06T15:56:33;20.50;60.10
78779;DHT22;68121;52.404;5.318;2023-05-06T15:58:59;20.50;60.30
78779;DHT22;68121;52.404;5.318;2023-05-06T16:01:26;20.50;60.50